Aérodrome :
LOGIN :

S'inscrire | Disclaimer

   EN    FR    IT 

 










Légende :    VFR   VFR Marginal   IFR   IFR Intensif   IFR Très Intensif
Visi : 
Plafond : 
>= 8 km
>= 3000ft
5 à 8 km
1000 à 3000 ft
1500m à 5 km
500 à 1000 ft
800 à 1500m
200 à 500 ft
< 800m
< 200 ft
Symboles :   Orages  Brouillard  Fortes neiges  Fortes précipitations  Vent > 20 kt
SIGMETs :   Divers  Orages  Givrage  Turbulence  Onde Orograph.  Cendres Volcan.






- Altitude de l'aérodrome : 157 ft
- Code IATA : SXF


EDDB - Berlin Schönefeld

DERNIER METAR :
  • 091150Z 30013KT CAVOK 17/04 Q1023 NOSIG

METARs EXPIRÉS :
  • 091120Z 30013KT 270V350 CAVOK 17/03 Q1023 NOSIG
  • 091050Z 29012KT CAVOK 16/03 Q1023 NOSIG
  • 091020Z 31012KT CAVOK 16/03 Q1023 NOSIG
  • 090950Z 29005KT 240V330 CAVOK 16/04 Q1023 NOSIG
  • 090920Z 31009KT 280V340 CAVOK 15/03 Q1023 NOSIG

TAF COR TAF EDDB
Valide du 09 à 12h jusqu'au 10 à 12h UTC


091151Z 0912/1012 32012KT CAVOK
PROB30
TEMPO 0912/0916 32015G25KT
BECMG 0918/0921 VRB03KT
BECMG 1006/1009 30006KT



MET'MAP, la Météo Aéronautique d'un coup d'oeil ! - Copyright ORBIFLY Décembre 2007 - Disclaimer

ORBIFLY MET'MAP TEAM :

Programmation & Développement : Alexandra Zaïnal
Sur une idée originale de : Baudouin d'Aumeries
Assistance à la programmation : Marc-Olivier Méhu
Soutien technique & logistique : Manuel Goepfert

Contact : metmap@orbifly.com




SOURCES & CREDITS :

   NOAA